Time;durP1;ratioP1;P1;durP2;ratioP2;P2;SDS_P1;SDS_P2;PMS_P1;PMS_P2;Temp;Humidity;BMP_temperature;BMP_pressure;BME280_temperature;BME280_humidity;BME280_pressure;Samples;Min_cycle;Max_cycle;Signal;HPM_P1;HPM_P2
2022/05/16 00:00:01;;;;;;;1.67;1.57;;;17.00;57.90;16.30;98260.00;;;;5015720;28;20320;-79
2022/05/16 00:02:30;;;;;;;0.53;0.53;;;16.90;59.00;16.30;98252.00;;;;5015789;28;20225;-79
2022/05/16 00:04:57;;;;;;;1.10;1.10;;;16.80;59.30;16.40;98253.00;;;;5015809;28;20239;-79
2022/05/16 00:07:24;;;;;;;3.80;1.30;;;16.90;58.70;16.30;98254.00;;;;5015831;28;20214;-78
2022/05/16 00:09:53;;;;;;;1.23;0.90;;;16.80;58.90;16.10;98243.00;;;;5015759;28;20202;-77
2022/05/16 00:12:20;;;;;;;0.60;0.60;;;16.80;59.50;16.20;98237.00;;;;5015744;28;20193;-79
2022/05/16 00:14:47;;;;;;;0.80;0.80;;;16.70;59.70;16.30;98236.00;;;;4998422;28;20305;-79
2022/05/16 00:17:14;;;;;;;0.87;0.87;;;16.70;59.30;16.00;98234.00;;;;4998572;28;20303;-79
2022/05/16 00:19:42;;;;;;;0.50;0.50;;;16.60;58.50;16.00;98240.00;;;;5015714;28;20205;-79
2022/05/16 00:22:10;;;;;;;1.37;1.27;;;16.60;59.80;16.00;98224.00;;;;4998364;28;20612;-77
2022/05/16 00:24:42;;;;;;;0.50;0.50;;;16.50;59.80;15.90;98226.00;;;;4998432;28;20233;-79
2022/05/16 00:27:10;;;;;;;0.73;0.73;;;16.50;60.40;16.00;98232.00;;;;4998416;28;20205;-79
2022/05/16 00:29:38;;;;;;;0.87;0.87;;;16.50;60.10;15.90;98197.00;;;;5015914;28;20220;-78
2022/05/16 00:32:05;;;;;;;1.07;1.07;;;16.50;60.80;15.90;98226.00;;;;5014928;28;20225;-78
2022/05/16 00:34:32;;;;;;;0.57;0.57;;;16.50;60.30;16.00;98218.00;;;;5015410;28;20208;-78
2022/05/16 00:37:01;;;;;;;0.40;0.40;;;16.40;60.60;16.00;98218.00;;;;5015560;28;20312;-79
2022/05/16 00:39:28;;;;;;;0.57;0.57;;;16.50;60.10;15.90;98216.00;;;;5015329;28;20232;-78
2022/05/16 00:41:55;;;;;;;0.70;0.70;;;16.40;60.30;15.90;98208.00;;;;5015264;28;20563;-79
2022/05/16 00:44:22;;;;;;;0.60;0.60;;;16.40;60.70;16.10;98213.00;;;;5015053;28;20225;-79
2022/05/16 00:46:50;;;;;;;1.30;1.17;;;16.50;60.50;15.90;98208.00;;;;5015109;28;20664;-77
2022/05/16 00:49:25;;;;;;;0.67;0.67;;;16.50;59.80;15.90;98182.00;;;;5015176;28;20269;-78
2022/05/16 00:52:00;;;;;;;0.83;0.83;;;16.50;59.90;16.00;98206.00;;;;5015038;28;20229;-79
2022/05/16 00:54:31;;;;;;;0.83;0.83;;;16.40;59.40;15.90;98204.00;;;;5015051;28;20216;-79
2022/05/16 00:57:04;;;;;;;0.57;0.57;;;16.40;58.90;15.90;98195.00;;;;4997874;28;20547;-79
2022/05/16 00:59:41;;;;;;;0.87;0.87;;;16.40;59.20;15.90;98191.00;;;;5015350;28;20858;-79
2022/05/16 01:04:56;;;;;;;0.40;0.40;;;16.40;60.80;15.80;98184.00;;;;5014873;28;20236;-79
2022/05/16 01:07:28;;;;;;;2.20;1.20;;;16.40;61.30;15.90;98188.00;;;;5015035;28;20229;-79
2022/05/16 01:09:56;;;;;;;0.77;0.77;;;16.40;61.20;16.00;98183.00;;;;5014761;28;20280;-79
2022/05/16 01:12:34;;;;;;;0.87;0.87;;;16.50;60.90;16.00;98190.00;;;;5014878;28;20686;-79
2022/05/16 01:15:08;;;;;;;0.70;0.70;;;16.50;60.80;15.90;98189.00;;;;5013678;28;20692;-78
2022/05/16 01:17:37;;;;;;;0.67;0.67;;;16.40;60.90;15.90;98197.00;;;;5014642;28;20664;-79
2022/05/16 01:20:05;;;;;;;0.60;0.60;;;16.40;61.00;16.00;98195.00;;;;5014655;28;20247;-79
2022/05/16 01:22:37;;;;;;;0.63;0.63;;;16.50;60.50;16.00;98191.00;;;;5014542;28;20193;-79
2022/05/16 01:25:10;;;;;;;0.70;0.70;;;16.50;60.10;15.80;98188.00;;;;5014526;28;20221;-79
2022/05/16 01:27:52;;;;;;;0.93;0.93;;;16.40;59.50;16.00;98194.00;;;;5014671;28;20228;-78
2022/05/16 01:30:29;;;;;;;3.83;0.83;;;16.50;60.20;16.00;98184.00;;;;5014837;28;20216;-79
2022/05/16 01:32:56;;;;;;;2.43;1.47;;;16.50;59.60;15.90;98200.00;;;;5014680;28;20296;-78
2022/05/16 01:35:26;;;;;;;0.40;0.40;;;16.50;59.60;15.90;98196.00;;;;5014515;28;20283;-79
2022/05/16 01:40:39;;;;;;;0.83;0.83;;;16.40;59.90;15.80;98207.00;;;;5014440;28;20731;-79
2022/05/16 01:43:06;;;;;;;0.50;0.50;;;16.30;60.20;15.60;98183.00;;;;5013606;28;20287;-79
2022/05/16 01:45:33;;;;;;;1.60;0.93;;;16.30;60.10;15.70;98211.00;;;;5014488;28;20205;-79
2022/05/16 01:48:00;;;;;;;0.70;0.70;;;16.30;60.10;15.80;98217.00;;;;5014297;28;20223;-79
2022/05/16 01:50:29;;;;;;;0.50;0.50;;;16.30;59.80;15.80;98198.00;;;;5014422;28;20629;-78
2022/05/16 01:52:58;;;;;;;0.70;0.70;;;16.30;59.50;15.80;98199.00;;;;5014353;28;20209;-79
2022/05/16 01:55:28;;;;;;;0.50;0.50;;;16.30;58.90;16.00;98189.00;;;;5014301;28;20199;-78
2022/05/16 01:57:54;;;;;;;0.70;0.70;;;16.50;58.70;15.90;98190.00;;;;5014254;28;20213;-78
2022/05/16 02:00:21;;;;;;;0.60;0.60;;;16.40;58.20;15.70;98184.00;;;;5014293;28;20293;-79
2022/05/16 02:02:48;;;;;;;0.80;0.80;;;16.30;59.60;15.60;98181.00;;;;5014038;28;20619;-79
2022/05/16 02:05:18;;;;;;;1.20;1.03;;;16.20;60.00;15.70;98193.00;;;;5014204;28;20197;-78
2022/05/16 02:07:45;;;;;;;0.83;0.83;;;16.20;59.90;15.70;98159.00;;;;5014060;28;20213;-78
2022/05/16 02:10:16;;;;;;;1.37;1.27;;;16.20;60.50;15.60;98188.00;;;;5014138;28;20228;-78
2022/05/16 02:12:43;;;;;;;0.50;0.50;;;16.10;60.00;15.60;98165.00;;;;4996854;28;20209;-78
2022/05/16 02:15:13;;;;;;;0.50;0.50;;;16.10;60.10;15.50;98185.00;;;;5013856;28;20299;-78
2022/05/16 02:17:39;;;;;;;0.50;0.50;;;16.00;60.50;15.50;98187.00;;;;5014081;28;20213;-78
2022/05/16 02:20:08;;;;;;;0.60;0.60;;;16.00;61.10;15.60;98188.00;;;;5013854;28;20603;-78
2022/05/16 02:25:20;;;;;;;0.80;0.80;;;16.10;61.30;15.60;98196.00;;;;5014034;28;20232;-79
2022/05/16 02:27:48;;;;;;;0.80;0.80;;;16.10;61.40;15.50;98199.00;;;;5013932;28;20252;-78
2022/05/16 02:30:15;;;;;;;1.00;1.00;;;16.10;61.40;15.40;98193.00;;;;5014041;28;20691;-79
2022/05/16 02:32:41;;;;;;;1.03;1.03;;;16.00;61.80;15.50;98187.00;;;;5013984;28;20300;-79
2022/05/16 02:35:09;;;;;;;0.73;0.73;;;16.00;61.80;15.40;98182.00;;;;5013814;28;20233;-79
2022/05/16 02:37:36;;;;;;;1.50;1.40;;;15.90;61.70;15.40;98192.00;;;;5013851;28;20229;-79
2022/05/16 02:40:04;;;;;;;1.00;1.00;;;15.90;61.70;15.50;98181.00;;;;5013937;28;20645;-78
2022/05/16 02:42:31;;;;;;;0.90;0.90;;;16.00;61.00;15.40;98186.00;;;;5013515;28;20251;-78
2022/05/16 02:44:57;;;;;;;0.77;0.77;;;16.00;61.60;15.30;98182.00;;;;5013519;28;20247;-79
2022/05/16 02:47:25;;;;;;;1.07;0.73;;;15.90;61.40;15.20;98188.00;;;;5013593;28;20201;-78
2022/05/16 02:49:51;;;;;;;0.97;0.97;;;15.80;61.80;15.30;98195.00;;;;5013671;28;20707;-80
2022/05/16 02:52:20;;;;;;;0.70;0.70;;;15.90;62.90;15.30;98202.00;;;;5013746;28;20667;-80
2022/05/16 02:54:51;;;;;;;0.73;0.73;;;15.90;63.20;15.40;98209.00;;;;5015798;28;20201;-79
2022/05/16 02:57:18;;;;;;;0.40;0.40;;;15.90;62.70;15.40;98210.00;;;;5017273;28;20204;-79
2022/05/16 02:59:45;;;;;;;0.70;0.70;;;15.90;62.10;15.30;98209.00;;;;5017058;28;20260;-79
2022/05/16 03:02:12;;;;;;;1.13;1.03;;;15.90;62.70;15.30;98211.00;;;;5016805;28;20217;-79
2022/05/16 03:04:41;;;;;;;1.33;1.23;;;15.90;62.90;15.40;98216.00;;;;5016552;28;20241;-80
2022/05/16 03:07:08;;;;;;;0.50;0.50;;;15.90;61.90;15.30;98215.00;;;;5016769;28;20656;-79
2022/05/16 03:09:35;;;;;;;0.63;0.63;;;15.90;61.70;15.30;98223.00;;;;5016907;28;20205;-80
2022/05/16 03:12:02;;;;;;;0.70;0.70;;;15.80;61.70;15.30;98215.00;;;;5016670;28;20212;-80
2022/05/16 03:14:31;;;;;;;0.40;0.40;;;15.90;62.30;15.40;98219.00;;;;5016703;28;20209;-79
2022/05/16 03:16:58;;;;;;;0.93;0.73;;;15.90;62.40;15.30;98225.00;;;;5016616;28;20221;-79
2022/05/16 03:19:25;;;;;;;1.13;1.03;;;15.80;62.10;15.40;98218.00;;;;4999417;28;20209;-79
2022/05/16 03:21:51;;;;;;;0.80;0.80;;;15.80;61.20;15.20;98218.00;;;;5017369;28;20229;-79
2022/05/16 03:24:18;;;;;;;1.20;0.73;;;15.80;61.30;15.30;98226.00;;;;5017566;28;20236;-80
2022/05/16 03:26:44;;;;;;;1.07;1.07;;;15.80;62.20;15.20;98221.00;;;;5016493;28;20296;-77
2022/05/16 03:29:11;;;;;;;0.60;0.60;;;15.70;62.30;15.30;98220.00;;;;5016691;28;20284;-82
2022/05/16 03:31:39;;;;;;;0.63;0.63;;;15.80;62.40;15.40;98219.00;;;;5016670;28;20523;-79
2022/05/16 03:34:08;;;;;;;1.00;1.00;;;15.80;63.20;15.30;98221.00;;;;5016496;28;20268;-79
2022/05/16 03:36:34;;;;;;;0.57;0.57;;;15.80;63.60;15.40;98193.00;;;;4999473;28;20308;-79
2022/05/16 03:41:46;;;;;;;0.60;0.60;;;15.80;63.00;15.30;98214.00;;;;5016345;28;20283;-79
2022/05/16 03:44:13;;;;;;;0.60;0.60;;;15.80;62.70;15.40;98211.00;;;;5016133;28;20225;-79
2022/05/16 03:46:40;;;;;;;0.67;0.67;;;15.90;63.10;15.40;98219.00;;;;5016178;28;20225;-78
2022/05/16 03:49:07;;;;;;;1.13;1.13;;;15.90;63.00;15.40;98214.00;;;;4998812;28;20228;-78
2022/05/16 03:51:34;;;;;;;0.50;0.50;;;15.90;62.50;15.40;98209.00;;;;5016157;28;20232;-79
2022/05/16 03:54:01;;;;;;;0.43;0.43;;;15.90;61.80;15.40;98220.00;;;;5016106;28;20604;-77
2022/05/16 03:56:29;;;;;;;0.70;0.70;;;15.90;62.60;15.40;98213.00;;;;5015867;28;20319;-80
2022/05/16 03:58:57;;;;;;;0.67;0.67;;;15.90;63.20;15.40;98225.00;;;;5015970;28;20651;-79
2022/05/16 04:01:25;;;;;;;0.50;0.50;;;15.90;63.60;15.50;98225.00;;;;5015802;28;20217;-79
2022/05/16 04:03:53;;;;;;;1.13;1.00;;;16.00;63.40;15.50;98229.00;;;;5015917;28;20233;-80
2022/05/16 04:06:20;;;;;;;0.80;0.80;;;16.10;63.00;15.60;98226.00;;;;4997883;28;20557;-78
2022/05/16 04:08:47;;;;;;;0.73;0.73;;;16.10;63.40;15.60;98236.00;;;;5015896;28;20205;-78
2022/05/16 04:11:16;;;;;;;1.13;1.13;;;16.10;63.10;15.60;98234.00;;;;5015825;28;20216;-78
2022/05/16 04:13:47;;;;;;;0.83;0.83;;;16.10;64.00;15.60;98234.00;;;;5015746;28;20508;-79
2022/05/16 04:16:14;;;;;;;1.20;1.10;;;16.20;61.90;15.60;98237.00;;;;5015903;28;20201;-79
2022/05/16 04:18:44;;;;;;;1.43;1.33;;;16.20;62.50;15.70;98244.00;;;;5016107;28;20249;-78
2022/05/16 04:21:13;;;;;;;0.90;0.90;;;16.20;62.30;15.80;98242.00;;;;5015909;28;20212;-79
2022/05/16 04:23:41;;;;;;;0.50;0.50;;;16.20;62.60;15.90;98244.00;;;;5015750;28;20231;-79
2022/05/16 04:26:07;;;;;;;0.83;0.83;;;16.40;62.90;15.90;98251.00;;;;5015652;28;20281;-79
2022/05/16 04:28:34;;;;;;;0.63;0.63;;;16.40;62.80;15.90;98249.00;;;;5015501;28;20210;-79
2022/05/16 04:31:03;;;;;;;0.83;0.83;;;16.40;64.50;15.90;98241.00;;;;5015499;28;20241;-78
2022/05/16 04:33:31;;;;;;;0.60;0.60;;;16.40;65.10;16.00;98251.00;;;;5015387;28;20516;-80
2022/05/16 04:35:58;;;;;;;0.77;0.77;;;16.50;65.70;16.10;98246.00;;;;5015484;28;20193;-79
2022/05/16 04:38:25;;;;;;;0.77;0.77;;;16.70;66.30;16.20;98243.00;;;;5015593;28;20223;-79
2022/05/16 04:43:37;;;;;;;0.80;0.80;;;16.70;67.30;16.30;98250.00;;;;5015418;28;20217;-79
2022/05/16 04:46:05;;;;;;;1.80;1.70;;;16.80;67.10;16.40;98251.00;;;;5015225;28;20260;-79
2022/05/16 04:48:35;;;;;;;0.60;0.60;;;16.80;67.30;16.50;98260.00;;;;5015351;28;20584;-79
2022/05/16 04:51:01;;;;;;;0.60;0.60;;;16.90;68.40;16.60;98262.00;;;;5015031;28;20201;-79
2022/05/16 04:53:28;;;;;;;1.07;1.07;;;17.10;68.70;16.60;98258.00;;;;4997881;28;20233;-79
2022/05/16 04:55:58;;;;;;;0.60;0.60;;;17.10;69.50;16.70;98254.00;;;;5015036;28;20229;-80
2022/05/16 04:58:25;;;;;;;0.77;0.77;;;17.20;69.50;16.70;98262.00;;;;5015103;28;20541;-79
2022/05/16 05:00:51;;;;;;;0.90;0.90;;;17.20;69.60;16.70;98267.00;;;;5015005;28;20278;-79
2022/05/16 05:03:18;;;;;;;0.77;0.77;;;17.30;69.10;16.90;98266.00;;;;5014795;28;20228;-80
2022/05/16 05:05:44;;;;;;;0.60;0.60;;;17.30;70.20;16.90;98264.00;;;;5014896;28;20288;-79
2022/05/16 05:08:11;;;;;;;0.60;0.60;;;17.40;69.90;16.90;98263.00;;;;5014925;28;20236;-79
2022/05/16 05:16:27;;;;;;;0.67;0.67;;;17.50;69.10;17.10;98265.00;;;;4935832;29;20200;-79
2022/05/16 05:18:53;;;;;;;1.00;1.00;;;17.60;69.70;17.10;98263.00;;;;4978200;28;20254;-78
2022/05/16 05:21:20;;;;;;;1.53;1.23;;;17.60;69.80;17.20;98262.00;;;;5014679;28;20278;-78
2022/05/16 05:23:47;;;;;;;0.50;0.50;;;17.70;69.50;17.20;98257.00;;;;5014642;28;20252;-80
2022/05/16 05:26:14;;;;;;;0.63;0.63;;;17.70;69.60;17.30;98261.00;;;;5014743;28;20384;-79
2022/05/16 05:28:42;;;;;;;0.57;0.57;;;17.70;69.20;17.40;98268.00;;;;5014620;28;20245;-80
2022/05/16 05:31:14;;;;;;;0.70;0.70;;;17.80;68.30;17.50;98262.00;;;;5014673;28;20217;-79
2022/05/16 05:33:41;;;;;;;0.60;0.60;;;17.90;68.70;17.50;98257.00;;;;5014480;28;20189;-79
2022/05/16 05:36:10;;;;;;;0.57;0.57;;;18.00;69.60;17.50;98266.00;;;;5014624;28;20294;-79
2022/05/16 05:38:39;;;;;;;0.83;0.83;;;18.00;69.70;17.60;98263.00;;;;5014695;28;20300;-78
2022/05/16 05:41:07;;;;;;;1.47;1.03;;;18.10;69.60;17.50;98256.00;;;;4997273;28;20197;-79
2022/05/16 05:43:36;;;;;;;1.00;1.00;;;18.10;69.80;17.70;98275.00;;;;5014562;28;20280;-80
2022/05/16 05:46:05;;;;;;;0.43;0.43;;;18.20;69.10;17.80;98265.00;;;;5014399;28;20679;-80
2022/05/16 05:48:32;;;;;;;1.00;1.00;;;18.30;69.00;17.80;98280.00;;;;5014382;28;20229;-79
2022/05/16 05:50:58;;;;;;;0.87;0.87;;;18.30;69.80;17.90;98283.00;;;;5013555;28;20205;-79
2022/05/16 05:53:25;;;;;;;0.40;0.40;;;18.40;69.30;18.00;98283.00;;;;5014217;28;20217;-79
2022/05/16 05:55:52;;;;;;;0.57;0.57;;;18.50;68.10;18.00;98286.00;;;;5014257;28;20640;-79
2022/05/16 05:58:22;;;;;;;0.60;0.60;;;18.50;67.40;18.10;98288.00;;;;5014229;28;20582;-79
2022/05/16 06:00:51;;;;;;;0.40;0.40;;;18.60;67.60;18.20;98292.00;;;;5014293;28;20205;-80
2022/05/16 06:03:18;;;;;;;0.63;0.63;;;18.60;67.60;18.40;98284.00;;;;5014062;28;20259;-79
2022/05/16 06:05:45;;;;;;;0.90;0.90;;;18.80;64.20;18.30;98302.00;;;;5014222;28;20720;-78
2022/05/16 06:08:11;;;;;;;0.60;0.60;;;18.80;64.10;18.40;98307.00;;;;5014190;28;20212;-79
2022/05/16 06:10:38;;;;;;;1.07;1.07;;;18.80;63.40;18.40;98299.00;;;;5014001;28;20307;-80
2022/05/16 06:13:07;;;;;;;0.40;0.40;;;18.90;62.60;18.50;98289.00;;;;5012985;28;20232;-78
2022/05/16 06:15:34;;;;;;;1.40;1.33;;;;;18.60;98301.00;;;;4996699;28;20321;-77
2022/05/16 06:18:00;;;;;;;1.27;1.27;;;19.00;62.00;18.60;98301.00;;;;5014077;28;20286;-78
2022/05/16 06:20:28;;;;;;;1.03;1.03;;;19.00;62.60;18.80;98306.00;;;;5013902;28;20201;-80
2022/05/16 06:22:57;;;;;;;2.53;0.97;;;19.10;62.40;18.90;98306.00;;;;5014120;28;20607;-79
2022/05/16 06:25:34;;;;;;;0.73;0.73;;;;;19.00;98309.00;;;;5014085;28;20591;-80
2022/05/16 06:28:05;;;;;;;0.60;0.60;;;19.30;60.30;19.20;98308.00;;;;5013982;28;20657;-82
2022/05/16 06:30:32;;;;;;;0.60;0.60;;;19.50;60.30;19.40;98303.00;;;;5019964;28;20208;-80
2022/05/16 06:33:00;;;;;;;0.67;0.67;;;19.60;60.10;19.60;98317.00;;;;5020301;28;20283;-81
2022/05/16 06:35:28;;;;;;;0.60;0.60;;;;;19.80;98308.00;;;;5003323;28;20244;-80
2022/05/16 06:37:55;;;;;;;0.93;0.93;;;;;20.00;98311.00;;;;5020353;28;20216;-77
2022/05/16 06:40:22;;;;;;;0.60;0.60;;;;;20.10;98309.00;;;;5020015;28;20426;-77
2022/05/16 06:42:49;;;;;;;0.90;0.90;;;20.40;56.30;20.30;98317.00;;;;5020228;28;20197;-77
2022/05/16 06:45:18;;;;;;;0.80;0.80;;;;;20.50;98317.00;;;;5019992;28;20540;-77
2022/05/16 06:47:45;;;;;;;0.63;0.63;;;21.00;55.80;20.80;98316.00;;;;5020198;28;20300;-77
2022/05/16 06:50:12;;;;;;;0.60;0.60;;;21.00;56.40;20.90;98323.00;;;;5019959;28;20197;-79
2022/05/16 06:52:40;;;;;;;0.73;0.73;;;;;21.10;98329.00;;;;5020079;28;20197;-78
2022/05/16 06:55:08;;;;;;;0.60;0.60;;;21.40;54.10;21.10;98329.00;;;;5019940;28;20208;-78
2022/05/16 06:57:36;;;;;;;0.63;0.63;;;;;21.20;98324.00;;;;5020347;28;20280;-77
2022/05/16 07:00:06;;;;;;;0.50;0.50;;;;;21.50;98329.00;;;;5019914;28;20220;-79
2022/05/16 07:02:33;;;;;;;0.60;0.60;;;;;21.50;98328.00;;;;5020070;28;20197;-78
2022/05/16 07:05:01;;;;;;;2.15;0.98;;;;;21.60;98329.00;;;;5020021;28;20225;-79
2022/05/16 07:07:28;;;;;;;0.75;0.75;;;;;21.80;98327.00;;;;5019934;28;20312;-77
2022/05/16 07:09:57;;;;;;;0.30;0.30;;;22.10;49.60;21.90;98339.00;;;;5019972;28;20201;-78
2022/05/16 07:12:27;;;;;;;0.47;0.47;;;;;22.00;98338.00;;;;5019782;28;20200;-77
2022/05/16 07:14:54;;;;;;;1.13;0.82;;;22.30;48.90;22.10;98332.00;;;;5019857;28;20193;-77
2022/05/16 07:17:20;;;;;;;1.20;1.10;;;;;22.10;98339.00;;;;5019870;28;20205;-77
2022/05/16 07:19:49;;;;;;;0.60;0.60;;;;;22.20;98334.00;;;;5002429;28;20225;-77
2022/05/16 07:22:22;;;;;;;1.10;1.10;;;;;22.30;98343.00;;;;5002369;28;20324;-77
2022/05/16 07:24:55;;;;;;;0.60;0.60;;;;;22.30;98342.00;;;;5018675;28;20224;-76
2022/05/16 07:30:12;;;;;;;0.60;0.60;;;;;22.50;98340.00;;;;5019508;28;20224;-77
2022/05/16 07:32:45;;;;;;;0.40;0.40;;;22.70;51.50;22.60;98345.00;;;;5019517;28;20279;-77
2022/05/16 07:35:17;;;;;;;0.32;0.32;;;23.00;51.40;22.70;98345.00;;;;5019481;28;20229;-77
2022/05/16 07:37:47;;;;;;;0.60;0.60;;;;;22.80;98350.00;;;;5019641;28;20247;-77
2022/05/16 07:40:18;;;;;;;0.50;0.50;;;;;22.90;98356.00;;;;5017712;28;20212;-80
2022/05/16 07:42:45;;;;;;;1.17;0.98;;;;;22.90;98363.00;;;;4998904;28;20270;-77
2022/05/16 07:45:12;;;;;;;0.77;0.77;;;23.30;44.40;22.90;98367.00;;;;5016160;28;20229;-78
2022/05/16 07:47:39;;;;;;;1.08;0.80;;;;;23.10;98361.00;;;;5016361;28;20193;-78
2022/05/16 07:50:08;;;;;;;1.10;1.00;;;;;23.10;98368.00;;;;5016105;28;20346;-76
2022/05/16 07:52:35;;;;;;;1.15;1.05;;;;;23.20;98376.00;;;;5015178;28;20229;-76
2022/05/16 07:55:02;;;;;;;0.93;0.93;;;;;23.10;98372.00;;;;5015814;28;20288;-76
2022/05/16 07:57:28;;;;;;;0.80;0.80;;;23.40;42.90;23.10;98375.00;;;;5015882;28;20316;-76
2022/05/16 07:59:56;;;;;;;0.90;0.90;;;23.50;47.30;23.00;98369.00;;;;5016176;28;20205;-77
2022/05/16 08:02:23;;;;;;;0.60;0.60;;;;;22.90;98367.00;;;;5015869;28;20288;-79
2022/05/16 08:04:52;;;;;;;0.90;0.90;;;23.30;47.60;23.00;98376.00;;;;5015792;28;20243;-76
2022/05/16 08:07:18;;;;;;;0.70;0.70;;;;;23.20;98375.00;;;;5015828;28;20236;-78
2022/05/16 08:12:36;;;;;;;0.95;0.75;;;;;23.10;98385.00;;;;5015814;28;20289;-76
2022/05/16 08:15:05;;;;;;;0.82;0.82;;;23.40;45.00;23.10;98389.00;;;;5015706;28;20701;-76
2022/05/16 08:17:32;;;;;;;0.57;0.57;;;23.40;48.30;22.90;98386.00;;;;5015638;28;20229;-77
2022/05/16 08:19:59;;;;;;;0.82;0.82;;;23.30;46.70;23.00;98393.00;;;;5015710;28;20224;-77
2022/05/16 08:22:29;;;;;;;0.60;0.60;;;;;23.00;98395.00;;;;5015823;28;20264;-77
2022/05/16 08:24:56;;;;;;;1.25;1.25;;;23.40;46.60;23.20;98393.00;;;;5015584;28;20229;-78
2022/05/16 08:27:23;;;;;;;0.77;0.77;;;;;23.20;98398.00;;;;5015627;28;20233;-76
2022/05/16 08:29:52;;;;;;;1.25;1.00;;;;;23.10;98385.00;;;;5015413;28;20236;-76
2022/05/16 08:32:23;;;;;;;0.70;0.70;;;;;23.30;98393.00;;;;5015451;28;20537;-77
2022/05/16 08:34:50;;;;;;;22.98;1.55;;;;;23.20;98402.00;;;;5015411;28;20194;-77
2022/05/16 08:40:04;;;;;;;0.85;0.85;;;;;23.40;98403.00;;;;5015335;28;20280;-77
2022/05/16 08:42:48;;;;;;;0.82;0.82;;;23.60;45.10;23.80;98407.00;;;;5014210;28;20205;-76
2022/05/16 08:45:18;;;;;;;2.10;0.98;;;;;23.60;98419.00;;;;4998185;28;20317;-76
2022/05/16 08:47:54;;;;;;;1.58;1.02;;;;;23.80;98413.00;;;;4998110;28;20590;-75
2022/05/16 08:50:26;;;;;;;0.77;0.77;;;;;24.00;98418.00;;;;5015199;28;20221;-77
2022/05/16 08:53:00;;;;;;;0.60;0.60;;;;;24.00;98418.00;;;;5014892;28;20220;-79
2022/05/16 08:55:37;;;;;;;0.60;0.60;;;24.40;41.70;24.00;98419.00;;;;5015079;28;20600;-76
2022/05/16 08:58:12;;;;;;;0.82;0.82;;;24.40;43.20;24.30;98420.00;;;;5015177;28;20212;-76
2022/05/16 09:00:48;;;;;;;0.80;0.80;;;24.40;43.80;24.40;98415.00;;;;5015185;28;20240;-76
2022/05/16 09:03:34;;;;;;;1.73;1.42;;;24.70;42.90;24.60;98419.00;;;;5015176;28;20189;-76
2022/05/16 09:06:12;;;;;;;0.52;0.52;;;24.80;42.20;24.70;98409.00;;;;5015010;28;20228;-76
2022/05/16 09:08:49;;;;;;;3.92;1.92;;;25.00;41.90;25.10;98406.00;;;;5015069;28;20209;-75
2022/05/16 09:11:27;;;;;;;1.15;1.15;;;25.30;41.40;25.30;98415.00;;;;4997768;28;20545;-77
2022/05/16 09:14:04;;;;;;;0.63;0.63;;;25.50;41.40;25.10;98423.00;;;;5014810;28;20248;-77
2022/05/16 09:16:50;;;;;;;0.82;0.82;;;25.50;39.10;25.20;98433.00;;;;5014910;28;20262;-75
2022/05/16 09:19:47;;;;;;;0.95;0.93;;;25.50;39.90;25.20;98432.00;;;;5014829;28;20316;-77
2022/05/16 09:22:27;;;;;;;2.03;1.17;;;25.50;38.10;25.20;98433.00;;;;5014857;28;20205;-76
2022/05/16 09:25:03;;;;;;;0.85;0.85;;;25.50;38.30;25.20;98439.00;;;;5014921;28;20236;-76
2022/05/16 09:30:25;;;;;;;0.60;0.60;;;25.60;39.50;25.50;98445.00;;;;5014754;28;20201;-76
2022/05/16 09:32:59;;;;;;;1.05;1.05;;;25.70;39.30;25.60;98446.00;;;;5014797;28;20258;-76
2022/05/16 09:35:45;;;;;;;0.55;0.55;;;25.80;39.50;25.50;98446.00;;;;5014680;28;20216;-76
2022/05/16 09:38:12;;;;;;;0.40;0.40;;;25.80;40.10;25.50;98455.00;;;;5014574;28;20231;-78
2022/05/16 09:40:54;;;;;;;0.63;0.63;;;25.70;39.80;25.60;98457.00;;;;5014608;28;20196;-77
2022/05/16 09:43:26;;;;;;;8.32;2.90;;;25.90;38.80;25.50;98466.00;;;;5014611;28;20229;-78
2022/05/16 09:46:06;;;;;;;0.50;0.50;;;25.80;39.50;25.30;98465.00;;;;5014503;28;20683;-78
2022/05/16 09:48:33;;;;;;;0.60;0.60;;;;;25.40;98457.00;;;;5014402;28;20286;-76
2022/05/16 09:51:03;;;;;;;0.60;0.60;;;25.70;38.50;25.20;98469.00;;;;4997208;28;20634;-77
2022/05/16 09:53:35;;;;;;;0.55;0.55;;;25.60;39.00;25.10;98467.00;;;;5014561;28;20668;-76
2022/05/16 09:56:09;;;;;;;0.47;0.47;;;25.50;38.70;25.20;98460.00;;;;4996921;28;20622;-76
2022/05/16 09:58:48;;;;;;;0.82;0.82;;;;;25.30;98472.00;;;;4996844;28;20536;-75
2022/05/16 10:01:32;;;;;;;1.08;1.08;;;;;25.50;98471.00;;;;5014182;28;20526;-77
2022/05/16 10:04:12;;;;;;;0.82;0.82;;;25.80;37.30;25.60;98474.00;;;;5013166;28;20316;-77
2022/05/16 10:06:43;;;;;;;1.35;1.25;;;;;25.80;98477.00;;;;5014223;28;20246;-77
2022/05/16 10:09:15;;;;;;;0.77;0.77;;;26.10;36.10;26.00;98478.00;;;;5014256;28;20293;-77
2022/05/16 10:11:48;;;;;;;2.30;1.38;;;;;25.70;98486.00;;;;5014023;28;20288;-76
2022/05/16 10:14:15;;;;;;;1.10;1.10;;;26.00;35.00;25.70;98477.00;;;;5014243;28;20655;-77
2022/05/16 10:16:51;;;;;;;0.95;0.95;;;26.00;35.40;26.10;98482.00;;;;5014245;28;20284;-77
2022/05/16 10:19:26;;;;;;;1.23;1.23;;;26.20;35.50;26.00;98482.00;;;;5014218;28;20629;-79
2022/05/16 10:21:57;;;;;;;0.70;0.68;;;26.40;34.50;25.60;98489.00;;;;5014708;28;20212;-78
2022/05/16 10:24:27;;;;;;;0.60;0.60;;;26.10;34.30;25.70;98488.00;;;;5014128;28;20600;-78
2022/05/16 10:26:57;;;;;;;0.50;0.50;;;;;25.80;98492.00;;;;5013819;28;20282;-78
2022/05/16 10:29:27;;;;;;;0.60;0.60;;;;;25.70;98487.00;;;;5013784;28;20225;-78
2022/05/16 10:34:55;;;;;;;1.10;1.00;;;26.10;33.90;25.40;98500.00;;;;4996566;28;20301;-80
2022/05/16 10:37:23;;;;;;;0.60;0.60;;;;;25.60;98500.00;;;;5014876;28;20239;-78
2022/05/16 10:40:05;;;;;;;0.68;0.68;;;25.90;34.40;25.30;98497.00;;;;5014183;28;20316;-80
2022/05/16 10:42:38;;;;;;;0.70;0.70;;;;;25.50;98489.00;;;;5014538;28;20331;-81
2022/05/16 10:45:11;;;;;;;0.52;0.52;;;;;25.30;98509.00;;;;5014539;28;20272;-82
2022/05/16 10:47:45;;;;;;;0.70;0.70;;;;;25.10;98515.00;;;;5014681;28;20198;-82
2022/05/16 10:50:18;;;;;;;0.40;0.40;;;25.50;35.40;24.90;98501.00;;;;5014702;28;20194;-83
2022/05/16 10:52:53;;;;;;;0.90;0.90;;;25.40;37.10;25.10;98522.00;;;;5014789;28;20691;-86
2022/05/16 10:55:20;;;;;;;1.20;1.13;;;;;25.20;98506.00;;;;5023354;28;20177;-84
2022/05/16 10:58:15;;;;;;;1.00;1.00;;;25.50;35.70;24.80;98512.00;;;;5024160;28;20283;-82
2022/05/16 11:00:57;;;;;;;1.75;1.33;;;25.30;37.00;24.70;98494.00;;;;5021252;28;20228;-81
2022/05/16 11:04:08;;;;;;;1.48;1.38;;;25.20;37.20;25.00;98499.00;;;;5018895;28;20748;-84
2022/05/16 11:07:03;;;;;;;0.95;0.95;;;;;25.00;98503.00;;;;5018392;28;20186;-82
2022/05/16 11:09:48;;;;;;;2.15;0.75;;;25.40;37.10;24.60;98504.00;;;;5013430;28;20275;-80
2022/05/16 11:12:20;;;;;;;0.60;0.60;;;;;24.40;98516.00;;;;4996201;28;20308;-80
2022/05/16 11:14:58;;;;;;;1.55;0.65;;;24.90;37.90;24.30;98520.00;;;;5013894;28;20229;-79
2022/05/16 11:17:30;;;;;;;0.60;0.60;;;24.80;38.90;24.40;98506.00;;;;5016750;28;20197;-78
2022/05/16 11:20:05;;;;;;;0.70;0.70;;;;;24.30;98531.00;;;;5016770;28;20275;-79
2022/05/16 11:22:36;;;;;;;0.50;0.50;;;;;24.40;98510.00;;;;5015999;28;20216;-79
2022/05/16 11:25:13;;;;;;;0.40;0.40;;;24.70;37.90;24.00;98527.00;;;;4999530;28;20233;-78
2022/05/16 11:28:00;;;;;;;0.50;0.50;;;24.50;37.40;23.90;98554.00;;;;5016464;28;20308;-78
2022/05/16 11:30:41;;;;;;;0.38;0.38;;;24.50;38.40;23.80;98551.00;;;;5016614;28;20220;-78
2022/05/16 11:33:29;;;;;;;1.40;1.30;;;24.30;39.20;23.80;98536.00;;;;5016388;28;20243;-79
2022/05/16 11:36:01;;;;;;;0.93;0.93;;;24.30;39.40;23.60;98552.00;;;;5016432;28;20598;-77
2022/05/16 11:38:59;;;;;;;1.65;1.25;;;24.20;39.20;23.20;98548.00;;;;5016408;28;20239;-76
2022/05/16 11:41:47;;;;;;;0.70;0.70;;;;;23.20;98547.00;;;;5016473;28;20220;-78
2022/05/16 11:44:30;;;;;;;0.50;0.50;;;23.70;38.80;23.30;98556.00;;;;5016139;28;20252;-79
2022/05/16 11:47:10;;;;;;;0.68;0.68;;;23.70;40.00;23.20;98553.00;;;;5016147;28;20264;-79
2022/05/16 11:49:48;;;;;;;2.90;2.15;;;23.60;39.80;22.90;98551.00;;;;5016127;28;20287;-77
2022/05/16 11:52:44;;;;;;;0.40;0.40;;;23.40;40.50;22.80;98547.00;;;;4998831;28;20201;-77
2022/05/16 12:00:56;;;;;;;0.68;0.68;;;23.10;40.30;22.50;98561.00;;;;5016059;28;20276;-76
2022/05/16 12:03:36;;;;;;;0.50;0.50;;;23.00;40.60;22.30;98571.00;;;;5016222;28;20205;-77